Time;durP1;ratioP1;P1;durP2;ratioP2;P2;SDS_P1;SDS_P2;PMS_P1;PMS_P2;Temp;Humidity;BMP_temperature;BMP_pressure;BME280_temperature;BME280_humidity;BME280_pressure;Samples;Min_cycle;Max_cycle;Signal;HPM_P1;HPM_P2
2022/08/01 07:18:51;;;;;;;1.57;1.00;;;;;;;;;;4748636;28;20283;-74
2022/08/01 07:21:18;;;;;;;3.07;1.00;;;;;;;;;;5069191;28;20249;-74
2022/08/01 07:24:05;;;;;;;1.80;0.93;;;;;;;;;;5069456;28;20224;-74
2022/08/01 07:26:43;;;;;;;1.00;0.90;;;;;;;;;;5083498;28;20537;-74
2022/08/01 07:29:26;;;;;;;2.27;0.90;;;;;;;;;;5089414;28;20200;-75
2022/08/01 07:31:53;;;;;;;2.33;0.97;;;;;;;;;;5071154;28;20204;-75
2022/08/01 07:34:21;;;;;;;2.10;0.90;;;;;;;;;;5073632;28;20188;-75
2022/08/01 07:36:48;;;;;;;1.63;0.90;;;;;;;;;;5075046;28;20293;-75
2022/08/01 07:39:15;;;;;;;3.70;0.90;;;;;;;;;;5074987;28;20272;-75
2022/08/01 07:41:42;;;;;;;1.60;1.00;;;;;;;;;;5092611;28;20718;-74
2022/08/01 07:44:29;;;;;;;2.93;1.07;;;;;;;;;;5092656;28;20189;-74
2022/08/01 07:46:56;;;;;;;3.33;0.90;;;;;;;;;;5092549;28;20224;-75
2022/08/01 07:49:23;;;;;;;1.50;1.00;;;;;;;;;;5075048;28;20189;-76
2022/08/01 07:51:50;;;;;;;1.53;0.87;;;;;;;;;;5092459;28;20241;-76
2022/08/01 07:54:33;;;;;;;2.47;0.80;;;;;;;;;;5074529;28;20227;-75
2022/08/01 07:57:01;;;;;;;2.30;1.10;;;;;;;;;;5074700;28;20194;-75
2022/08/01 07:59:27;;;;;;;2.77;1.10;;;;;;;;;;5092728;28;20272;-75
2022/08/01 08:01:55;;;;;;;1.47;0.83;;;;;;;;;;5092656;28;20190;-76
2022/08/01 08:04:22;;;;;;;1.23;0.90;;;;;;;;;;5092459;28;20177;-76
2022/08/01 08:06:49;;;;;;;0.80;0.80;;;;;;;;;;5074497;28;20744;-76
2022/08/01 08:09:33;;;;;;;3.63;1.20;;;;;;;;;;5092570;28;20194;-76
2022/08/01 08:12:03;;;;;;;2.37;0.90;;;;;;;;;;5074225;28;20272;-76
2022/08/01 08:14:31;;;;;;;3.50;1.20;;;;;;;;;;5092576;28;20239;-75
2022/08/01 08:16:58;;;;;;;1.37;0.77;;;;;;;;;;5074188;28;20197;-75
2022/08/01 08:19:27;;;;;;;3.23;1.00;;;;;;;;;;5092486;28;20236;-75
2022/08/01 08:22:05;;;;;;;2.60;0.80;;;;;;;;;;5092517;28;20169;-76
2022/08/01 08:24:33;;;;;;;1.50;0.80;;;;;;;;;;5058075;28;20193;-75
2022/08/01 08:27:00;;;;;;;1.30;0.87;;;;;;;;;;5074773;28;20186;-76
2022/08/01 08:29:28;;;;;;;1.30;0.70;;;;;;;;;;5072496;28;20201;-76
2022/08/01 08:31:55;;;;;;;1.40;0.80;;;;;;;;;;5054186;28;20216;-76
2022/08/01 08:34:23;;;;;;;2.60;0.80;;;;;;;;;;5071773;28;20191;-76
2022/08/01 08:36:52;;;;;;;1.90;0.97;;;;;;;;;;5054325;28;20187;-75
2022/08/01 08:39:19;;;;;;;1.83;0.80;;;;;;;;;;5071601;28;20190;-75
2022/08/01 08:41:46;;;;;;;2.23;0.83;;;;;;;;;;5054199;28;20621;-75
2022/08/01 08:44:15;;;;;;;2.97;0.97;;;;;;;;;;5053735;28;20183;-75
2022/08/01 08:46:46;;;;;;;0.87;0.60;;;;;;;;;;5071286;28;20196;-74
2022/08/01 08:49:31;;;;;;;1.17;0.83;;;;;;;;;;5056526;28;20185;-75
2022/08/01 08:52:02;;;;;;;1.10;0.90;;;;;;;;;;5054655;28;20214;-74
2022/08/01 08:54:29;;;;;;;4.80;1.20;;;;;;;;;;5037262;28;20252;-75
2022/08/01 08:56:57;;;;;;;1.43;1.00;;;;;;;;;;5053554;28;20210;-75
2022/08/01 08:59:24;;;;;;;2.30;1.00;;;;;;;;;;5053599;28;20194;-74
2022/08/01 09:01:51;;;;;;;2.50;0.90;;;;;;;;;;5071466;28;20222;-74
2022/08/01 09:04:22;;;;;;;1.90;1.00;;;;;;;;;;5053966;28;20500;-74
2022/08/01 09:06:52;;;;;;;1.43;0.80;;;;;;;;;;5053213;28;20190;-75
2022/08/01 09:09:19;;;;;;;1.47;0.80;;;;;;;;;;5036477;28;20225;-75
2022/08/01 09:11:46;;;;;;;0.90;0.87;;;;;;;;;;5071320;28;20210;-76
2022/08/01 09:14:25;;;;;;;3.80;0.87;;;;;;;;;;5055044;28;20190;-76
2022/08/01 09:17:01;;;;;;;1.90;0.87;;;;;;;;;;5053152;28;20206;-76
2022/08/01 09:19:48;;;;;;;2.20;0.93;;;;;;;;;;5070725;28;20209;-75
2022/08/01 09:22:18;;;;;;;2.10;0.70;;;;;;;;;;5070808;28;20533;-75
2022/08/01 09:25:04;;;;;;;2.07;0.80;;;;;;;;;;5053214;28;20277;-75
2022/08/01 09:27:31;;;;;;;1.33;0.87;;;;;;;;;;5067647;28;20216;-76
2022/08/01 09:30:08;;;;;;;2.00;1.00;;;;;;;;;;5052547;28;20197;-76
2022/08/01 09:32:57;;;;;;;2.23;0.80;;;;;;;;;;5052968;28;20189;-75
2022/08/01 09:35:25;;;;;;;2.67;1.00;;;;;;;;;;5069418;28;20607;-75
2022/08/01 09:38:17;;;;;;;2.47;0.90;;;;;;;;;;5053529;28;20199;-75
2022/08/01 09:41:03;;;;;;;2.30;0.90;;;;;;;;;;5055927;28;20181;-76
2022/08/01 09:43:30;;;;;;;1.93;1.07;;;;;;;;;;5035752;28;20680;-76
2022/08/01 09:45:58;;;;;;;3.43;1.10;;;;;;;;;;5052470;28;20201;-77
2022/08/01 09:48:26;;;;;;;1.80;0.90;;;;;;;;;;5052360;28;20178;-76
2022/08/01 09:50:55;;;;;;;2.83;0.70;;;;;;;;;;5070154;28;20296;-77
2022/08/01 09:53:40;;;;;;;1.90;1.00;;;;;;;;;;5069975;28;20197;-77
2022/08/01 09:56:10;;;;;;;2.40;1.00;;;;;;;;;;5069833;28;20247;-76
2022/08/01 09:58:54;;;;;;;1.33;0.90;;;;;;;;;;5052179;28;20221;-76
2022/08/01 10:01:27;;;;;;;3.40;1.00;;;;;;;;;;5053359;28;20186;-74
2022/08/01 10:04:15;;;;;;;2.83;0.80;;;;;;;;;;5069930;28;20197;-73
2022/08/01 10:06:43;;;;;;;2.60;0.90;;;;;;;;;;5070122;28;20190;-74
2022/08/01 10:09:11;;;;;;;1.30;1.00;;;;;;;;;;5069890;28;20677;-74
2022/08/01 10:11:40;;;;;;;2.47;0.90;;;;;;;;;;5052064;28;20225;-75
2022/08/01 10:14:07;;;;;;;1.43;1.10;;;;;;;;;;5052353;28;20597;-75
2022/08/01 10:16:35;;;;;;;2.97;1.10;;;;;;;;;;5052113;28;20604;-75
2022/08/01 10:19:05;;;;;;;1.80;0.93;;;;;;;;;;5052222;28;20224;-75
2022/08/01 10:21:41;;;;;;;6.27;1.13;;;;;;;;;;5070109;28;20189;-75
2022/08/01 10:24:25;;;;;;;2.50;0.90;;;;;;;;;;5054358;28;20206;-75
2022/08/01 10:26:59;;;;;;;3.40;0.90;;;;;;;;;;5068031;28;20187;-76
2022/08/01 10:29:33;;;;;;;3.27;0.90;;;;;;;;;;5073687;28;20162;-76
2022/08/01 10:32:19;;;;;;;2.80;0.87;;;;;;;;;;5075240;28;20210;-76
2022/08/01 10:34:49;;;;;;;1.97;0.87;;;;;;;;;;5071974;28;20192;-75
2022/08/01 10:37:34;;;;;;;2.87;0.73;;;;;;;;;;5090011;28;20241;-74
2022/08/01 10:40:00;;;;;;;2.00;0.90;;;;;;;;;;5071679;28;20246;-74
2022/08/01 10:42:47;;;;;;;13.33;2.53;;;;;;;;;;5075068;28;20537;-75
2022/08/01 10:45:14;;;;;;;2.67;1.03;;;;;;;;;;5071866;28;20200;-74
2022/08/01 10:47:48;;;;;;;3.03;1.30;;;;;;;;;;5089930;28;20250;-74
2022/08/01 10:50:23;;;;;;;5.93;1.30;;;;;;;;;;5055333;28;20656;-76
2022/08/01 10:53:11;;;;;;;2.97;1.20;;;;;;;;;;5090167;28;20250;-76
2022/08/01 10:55:59;;;;;;;2.50;1.20;;;;;;;;;;5074617;28;20208;-76
2022/08/01 10:58:43;;;;;;;2.47;1.30;;;;;;;;;;5075108;28;20636;-75
2022/08/01 11:01:19;;;;;;;2.20;1.30;;;;;;;;;;5089793;28;20228;-75
2022/08/01 11:04:05;;;;;;;2.43;1.20;;;;;;;;;;5071463;28;20254;-74
2022/08/01 11:06:32;;;;;;;2.53;1.40;;;;;;;;;;5071928;28;20186;-75
2022/08/01 11:09:24;;;;;;;3.50;1.40;;;;;;;;;;5092994;28;20173;-74
2022/08/01 11:12:06;;;;;;;3.60;1.30;;;;;;;;;;5093189;28;20225;-75
2022/08/01 11:14:33;;;;;;;1.57;1.00;;;;;;;;;;5075769;28;20552;-75
2022/08/01 11:17:30;;;;;;;3.63;1.40;;;;;;;;;;5078296;28;20565;-75
2022/08/01 11:20:17;;;;;;;4.07;1.00;;;;;;;;;;5093266;28;20201;-75
2022/08/01 11:22:57;;;;;;;3.90;1.20;;;;;;;;;;5093340;28;20738;-75
2022/08/01 11:25:24;;;;;;;2.57;1.20;;;;;;;;;;5089341;28;20186;-75
2022/08/01 11:28:21;;;;;;;2.43;1.10;;;;;;;;;;5072991;28;20186;-76
2022/08/01 11:31:08;;;;;;;2.07;1.20;;;;;;;;;;5057636;28;20245;-76
2022/08/01 11:33:42;;;;;;;3.70;1.13;;;;;;;;;;5072497;28;20721;-76
2022/08/01 11:36:27;;;;;;;2.00;1.17;;;;;;;;;;5073119;28;20209;-75
2022/08/01 11:39:15;;;;;;;2.57;1.00;;;;;;;;;;5040609;28;20194;-76
2022/08/01 11:41:41;;;;;;;3.80;1.30;;;;;;;;;;5072616;28;20229;-75
2022/08/01 11:44:11;;;;;;;1.43;1.00;;;;;;;;;;5055218;28;20619;-76
2022/08/01 11:46:56;;;;;;;2.93;1.20;;;;;;;;;;5072447;28;20677;-76
2022/08/01 11:49:24;;;;;;;2.60;1.10;;;;;;;;;;5072557;28;20217;-76
2022/08/01 11:52:04;;;;;;;2.73;1.10;;;;;;;;;;5054335;28;20222;-76
2022/08/01 11:54:33;;;;;;;1.43;1.20;;;;;;;;;;5072599;28;20280;-75
2022/08/01 11:57:05;;;;;;;3.20;1.00;;;;;;;;;;5038673;28;20641;-76
2022/08/01 11:59:36;;;;;;;1.10;0.90;;;;;;;;;;5054509;28;20544;-75
2022/08/01 12:02:17;;;;;;;2.00;1.07;;;;;;;;;;5055086;28;20269;-75
2022/08/01 12:05:03;;;;;;;3.27;1.13;;;;;;;;;;5039458;28;20201;-76
2022/08/01 12:07:31;;;;;;;2.07;1.10;;;;;;;;;;5037541;28;20193;-75
2022/08/01 12:10:00;;;;;;;1.57;1.00;;;;;;;;;;5054110;28;20653;-75
2022/08/01 12:12:27;;;;;;;1.67;0.97;;;;;;;;;;5054817;28;20213;-76
2022/08/01 12:14:55;;;;;;;2.07;1.20;;;;;;;;;;5054132;28;20673;-75
2022/08/01 12:17:51;;;;;;;1.27;1.00;;;;;;;;;;5071979;28;20562;-75
2022/08/01 12:20:28;;;;;;;3.03;1.10;;;;;;;;;;5043634;28;20186;-76
2022/08/01 12:22:58;;;;;;;1.33;1.10;;;;;;;;;;5054403;28;20510;-75
2022/08/01 12:25:24;;;;;;;2.07;1.10;;;;;;;;;;5075766;28;20189;-75
2022/08/01 12:27:52;;;;;;;2.90;1.23;;;;;;;;;;5092048;28;20207;-76
2022/08/01 12:30:23;;;;;;;2.00;1.00;;;;;;;;;;5057547;28;20211;-76
2022/08/01 12:32:51;;;;;;;2.47;1.13;;;;;;;;;;5091729;28;20228;-76
2022/08/01 12:35:22;;;;;;;1.27;0.90;;;;;;;;;;5090442;28;21110;-76
2022/08/01 12:37:50;;;;;;;4.73;1.17;;;;;;;;;;5074137;28;20177;-76
2022/08/01 12:40:29;;;;;;;3.13;1.07;;;;;;;;;;5091788;28;20272;-76
2022/08/01 12:42:56;;;;;;;1.97;1.00;;;;;;;;;;5091695;28;20276;-75
2022/08/01 12:45:24;;;;;;;2.63;1.00;;;;;;;;;;5073732;28;20254;-75
2022/08/01 12:47:51;;;;;;;2.23;0.90;;;;;;;;;;5091519;28;20213;-76
2022/08/01 12:50:21;;;;;;;3.43;1.10;;;;;;;;;;5073712;28;20185;-76
2022/08/01 12:52:48;;;;;;;2.43;0.97;;;;;;;;;;5073660;28;20197;-75
2022/08/01 12:55:17;;;;;;;2.53;0.90;;;;;;;;;;5073528;28;20190;-75
2022/08/01 12:57:49;;;;;;;1.33;0.93;;;;;;;;;;5091772;28;20213;-76
2022/08/01 13:00:18;;;;;;;1.67;0.93;;;;;;;;;;5073623;28;20183;-76
2022/08/01 13:02:46;;;;;;;2.23;1.07;;;;;;;;;;5073397;28;20606;-76
2022/08/01 13:05:14;;;;;;;2.37;1.40;;;;;;;;;;5091648;28;20192;-76
2022/08/01 13:07:48;;;;;;;2.70;1.20;;;;;;;;;;5073221;28;20216;-75
2022/08/01 13:10:15;;;;;;;2.53;0.90;;;;;;;;;;5091257;28;20200;-75
2022/08/01 13:12:50;;;;;;;3.47;1.00;;;;;;;;;;5088284;28;20217;-76
2022/08/01 13:15:21;;;;;;;4.10;1.40;;;;;;;;;;5073213;28;20188;-75
2022/08/01 13:18:25;;;;;;;2.60;1.10;;;;;;;;;;5090793;28;20224;-75
2022/08/01 13:21:10;;;;;;;4.77;1.03;;;;;;;;;;5090850;28;20200;-76
2022/08/01 13:23:39;;;;;;;4.50;1.00;;;;;;;;;;5072828;28;20223;-76
2022/08/01 13:26:38;;;;;;;2.33;1.03;;;;;;;;;;5078548;28;20294;-75
2022/08/01 13:29:29;;;;;;;2.60;1.10;;;;;;;;;;5071100;28;20245;-76
2022/08/01 13:31:56;;;;;;;1.90;1.07;;;;;;;;;;5070631;28;20289;-75
2022/08/01 13:34:29;;;;;;;4.30;1.20;;;;;;;;;;5070848;28;20209;-75
2022/08/01 13:36:56;;;;;;;1.37;1.00;;;;;;;;;;5052668;28;20226;-75
2022/08/01 13:39:42;;;;;;;1.27;0.90;;;;;;;;;;5070623;28;20261;-74
2022/08/01 13:42:28;;;;;;;2.67;1.00;;;;;;;;;;5070655;28;20577;-75
2022/08/01 13:44:55;;;;;;;0.80;0.80;;;;;;;;;;5052344;28;20237;-76
2022/08/01 13:47:22;;;;;;;2.10;1.00;;;;;;;;;;5070353;28;20276;-75
2022/08/01 13:50:00;;;;;;;2.03;0.90;;;;;;;;;;5053991;28;20239;-75
2022/08/01 13:52:27;;;;;;;1.63;0.90;;;;;;;;;;5070418;28;20225;-74
2022/08/01 13:54:54;;;;;;;3.93;1.10;;;;;;;;;;5070142;28;20199;-75
2022/08/01 13:57:21;;;;;;;1.73;1.07;;;;;;;;;;5070031;28;20228;-74
2022/08/01 13:59:48;;;;;;;7.17;1.60;;;;;;;;;;5052306;28;20226;-75
2022/08/01 14:02:17;;;;;;;2.10;1.07;;;;;;;;;;5052456;28;20189;-75
2022/08/01 14:04:43;;;;;;;1.00;0.80;;;;;;;;;;5070396;28;20297;-75
2022/08/01 14:07:10;;;;;;;1.70;0.90;;;;;;;;;;5052383;28;20630;-75
2022/08/01 14:09:41;;;;;;;3.60;1.93;;;;;;;;;;5052685;28;20196;-76
2022/08/01 14:12:29;;;;;;;1.20;1.10;;;;;;;;;;5055456;28;20214;-75
2022/08/01 14:14:56;;;;;;;1.60;1.33;;;;;;;;;;5069970;28;20197;-75
2022/08/01 14:17:23;;;;;;;1.60;1.10;;;;;;;;;;5052074;28;20218;-76
2022/08/01 14:19:50;;;;;;;2.10;0.83;;;;;;;;;;5069899;28;20217;-76
2022/08/01 14:22:17;;;;;;;1.60;1.07;;;;;;;;;;5051853;28;20692;-76
2022/08/01 14:24:44;;;;;;;2.20;1.27;;;;;;;;;;5070025;28;20189;-76
2022/08/01 14:27:11;;;;;;;2.77;1.43;;;;;;;;;;5070631;28;20724;-76
2022/08/01 14:29:38;;;;;;;1.83;1.00;;;;;;;;;;5089947;28;20200;-76
2022/08/01 14:32:25;;;;;;;1.87;1.17;;;;;;;;;;5090231;28;20216;-76
2022/08/01 14:34:55;;;;;;;2.33;1.03;;;;;;;;;;5072551;28;20213;-76
2022/08/01 14:37:23;;;;;;;2.13;1.10;;;;;;;;;;5071758;28;20198;-76
2022/08/01 14:39:56;;;;;;;2.73;1.00;;;;;;;;;;5089665;28;20716;-76
2022/08/01 14:42:24;;;;;;;3.50;1.17;;;;;;;;;;5072705;28;20185;-76
2022/08/01 14:44:51;;;;;;;1.00;0.90;;;;;;;;;;5094155;28;20196;-76
2022/08/01 14:47:18;;;;;;;2.07;1.10;;;;;;;;;;5093977;28;20197;-76
2022/08/01 14:49:48;;;;;;;1.13;0.80;;;;;;;;;;5093844;28;20193;-76
2022/08/01 14:52:15;;;;;;;1.67;1.10;;;;;;;;;;5093513;28;20307;-76
2022/08/01 14:54:44;;;;;;;6.83;1.10;;;;;;;;;;5059572;28;20189;-76
2022/08/01 14:57:11;;;;;;;2.77;1.03;;;;;;;;;;5093458;28;20664;-76
2022/08/01 14:59:39;;;;;;;2.43;1.00;;;;;;;;;;5093391;28;20705;-76
2022/08/01 15:02:06;;;;;;;1.97;1.00;;;;;;;;;;5093159;28;20287;-76
2022/08/01 15:04:34;;;;;;;1.43;0.90;;;;;;;;;;5075810;28;20197;-76
2022/08/01 15:07:01;;;;;;;1.50;0.90;;;;;;;;;;5058648;28;20254;-76
2022/08/01 15:09:27;;;;;;;4.80;0.97;;;;;;;;;;5093430;28;20186;-76
2022/08/01 15:11:54;;;;;;;1.43;0.90;;;;;;;;;;5092947;28;20210;-76
2022/08/01 15:17:07;;;;;;;3.23;1.20;;;;;;;;;;5093214;28;20587;-76
2022/08/01 15:19:34;;;;;;;1.10;0.80;;;;;;;;;;5093300;28;20703;-76
2022/08/01 15:22:07;;;;;;;1.43;1.00;;;;;;;;;;5093477;28;20421;-76
2022/08/01 15:24:34;;;;;;;4.53;1.00;;;;;;;;;;5093317;28;20251;-76
2022/08/01 15:27:01;;;;;;;3.50;1.00;;;;;;;;;;5041255;28;20215;-76
2022/08/01 15:29:29;;;;;;;1.50;0.93;;;;;;;;;;5072937;28;20199;-76
2022/08/01 15:31:56;;;;;;;2.40;1.00;;;;;;;;;;5072571;28;20237;-76
2022/08/01 15:34:23;;;;;;;1.00;0.90;;;;;;;;;;5072894;28;20194;-76
2022/08/01 15:36:50;;;;;;;1.83;1.10;;;;;;;;;;5072643;28;20183;-76
2022/08/01 15:39:17;;;;;;;3.77;1.03;;;;;;;;;;5072072;28;20665;-76
2022/08/01 15:41:44;;;;;;;1.80;1.00;;;;;;;;;;5054882;28;20281;-76
2022/08/01 15:44:11;;;;;;;3.00;1.00;;;;;;;;;;5073084;28;20429;-76
2022/08/01 15:46:38;;;;;;;3.70;1.40;;;;;;;;;;5072302;28;20190;-76
2022/08/01 15:49:05;;;;;;;2.30;1.20;;;;;;;;;;5054530;28;20289;-76
2022/08/01 15:51:32;;;;;;;2.33;0.90;;;;;;;;;;5054644;28;20273;-76
2022/08/01 15:54:02;;;;;;;5.07;1.20;;;;;;;;;;5037037;28;20198;-76
2022/08/01 15:56:30;;;;;;;2.40;1.13;;;;;;;;;;5055371;28;20200;-75
2022/08/01 15:58:56;;;;;;;3.53;1.00;;;;;;;;;;5072483;28;20526;-76
2022/08/01 16:01:25;;;;;;;2.93;1.07;;;;;;;;;;5072691;28;20209;-75
2022/08/01 16:03:52;;;;;;;4.83;0.90;;;;;;;;;;5072120;28;20456;-76
2022/08/01 16:06:19;;;;;;;1.20;1.10;;;;;;;;;;5072501;28;20205;-76
2022/08/01 16:08:46;;;;;;;1.93;0.90;;;;;;;;;;5054082;28;20211;-76
2022/08/01 16:11:14;;;;;;;2.83;1.07;;;;;;;;;;5072602;28;20250;-76
2022/08/01 16:13:41;;;;;;;2.77;1.00;;;;;;;;;;5054434;28;20234;-76
2022/08/01 16:16:08;;;;;;;3.30;1.10;;;;;;;;;;5072167;28;20194;-76
2022/08/01 16:18:35;;;;;;;3.13;0.90;;;;;;;;;;5053666;28;20226;-76
2022/08/01 16:21:02;;;;;;;3.50;1.10;;;;;;;;;;5054448;28;20190;-76
2022/08/01 16:23:30;;;;;;;2.30;0.90;;;;;;;;;;5054016;28;20244;-75
2022/08/01 16:25:57;;;;;;;2.87;1.20;;;;;;;;;;5062567;28;20189;-76
2022/08/01 16:28:24;;;;;;;2.57;1.10;;;;;;;;;;5092094;28;20183;-76
2022/08/01 16:30:51;;;;;;;2.53;1.20;;;;;;;;;;5092102;28;20213;-76
2022/08/01 16:33:38;;;;;;;1.23;1.03;;;;;;;;;;5062714;28;20213;-76
2022/08/01 16:36:21;;;;;;;1.63;0.90;;;;;;;;;;5091888;28;20560;-76
2022/08/01 16:38:50;;;;;;;2.40;1.00;;;;;;;;;;5074405;28;20189;-76
2022/08/01 16:41:17;;;;;;;9.13;1.10;;;;;;;;;;5091997;28;20231;-76
2022/08/01 16:43:46;;;;;;;1.70;1.10;;;;;;;;;;5074349;28;20243;-76
2022/08/01 16:46:20;;;;;;;1.37;1.10;;;;;;;;;;5091721;28;20181;-76
2022/08/01 16:48:47;;;;;;;3.93;1.30;;;;;;;;;;5073586;28;20305;-76
2022/08/01 16:51:14;;;;;;;1.33;0.90;;;;;;;;;;5091420;28;20192;-76
2022/08/01 16:53:41;;;;;;;4.23;1.00;;;;;;;;;;5073297;28;20715;-76
2022/08/01 16:56:08;;;;;;;2.40;1.00;;;;;;;;;;5091822;28;20247;-76
2022/08/01 16:58:35;;;;;;;2.23;1.00;;;;;;;;;;5073276;28;20283;-76
2022/08/01 17:01:02;;;;;;;1.23;1.03;;;;;;;;;;5073365;28;20196;-76
2022/08/01 17:03:49;;;;;;;2.87;1.10;;;;;;;;;;5091231;28;20660;-76
2022/08/01 17:06:21;;;;;;;2.57;1.00;;;;;;;;;;5090806;28;20182;-76
2022/08/01 17:08:48;;;;;;;2.70;0.90;;;;;;;;;;5073271;28;20186;-77
2022/08/01 17:11:15;;;;;;;1.67;1.10;;;;;;;;;;5073553;28;20200;-77
2022/08/01 17:13:42;;;;;;;3.07;1.03;;;;;;;;;;5073360;28;20304;-77
2022/08/01 17:16:10;;;;;;;2.27;1.40;;;;;;;;;;5073446;28;20653;-76
2022/08/01 17:18:37;;;;;;;2.90;1.23;;;;;;;;;;5090661;28;20235;-76
2022/08/01 17:21:21;;;;;;;1.53;1.00;;;;;;;;;;5090913;28;20244;-77
2022/08/01 17:23:49;;;;;;;1.27;0.90;;;;;;;;;;5090839;28;20262;-77
2022/08/01 17:26:16;;;;;;;1.90;0.97;;;;;;;;;;5045010;28;20213;-77
2022/08/01 17:28:43;;;;;;;2.00;1.20;;;;;;;;;;5070691;28;20186;-77
2022/08/01 17:31:10;;;;;;;4.30;1.00;;;;;;;;;;5070753;28;20248;-77
2022/08/01 17:33:37;;;;;;;3.40;1.50;;;;;;;;;;5070477;28;20304;-77
2022/08/01 17:36:11;;;;;;;3.03;1.30;;;;;;;;;;5054393;28;20189;-77
2022/08/01 17:38:38;;;;;;;2.40;1.20;;;;;;;;;;5052505;28;20213;-77
2022/08/01 17:41:05;;;;;;;1.63;1.07;;;;;;;;;;5070533;28;20609;-77
2022/08/01 17:43:32;;;;;;;7.00;1.10;;;;;;;;;;5052235;28;20201;-77
2022/08/01 17:45:59;;;;;;;2.77;1.00;;;;;;;;;;5052267;28;20221;-77
2022/08/01 17:48:27;;;;;;;3.00;1.20;;;;;;;;;;5070066;28;20186;-77
2022/08/01 17:50:54;;;;;;;3.93;1.10;;;;;;;;;;5052481;28;20198;-77
2022/08/01 17:53:22;;;;;;;2.97;1.27;;;;;;;;;;5052564;28;20226;-77
2022/08/01 17:55:49;;;;;;;2.27;1.13;;;;;;;;;;5070144;28;20186;-77
2022/08/01 17:58:23;;;;;;;4.27;1.00;;;;;;;;;;5069791;28;20178;-77
2022/08/01 18:01:11;;;;;;;1.67;1.10;;;;;;;;;;5069983;28;20186;-76
2022/08/01 18:03:38;;;;;;;1.47;1.00;;;;;;;;;;5052203;28;20197;-77
2022/08/01 18:06:07;;;;;;;3.20;1.27;;;;;;;;;;5019959;28;20196;-77
2022/08/01 18:08:34;;;;;;;2.57;0.97;;;;;;;;;;5052047;28;20190;-77
2022/08/01 18:11:18;;;;;;;1.37;0.97;;;;;;;;;;5054663;28;20252;-77
2022/08/01 18:13:46;;;;;;;2.67;0.80;;;;;;;;;;5052184;28;20214;-77
2022/08/01 18:16:14;;;;;;;1.67;1.20;;;;;;;;;;5069767;28;20222;-76
2022/08/01 18:18:41;;;;;;;6.30;1.50;;;;;;;;;;5068874;28;20206;-77
2022/08/01 18:21:09;;;;;;;2.60;1.30;;;;;;;;;;5069838;28;20675;-77
2022/08/01 18:23:36;;;;;;;2.00;1.27;;;;;;;;;;5051909;28;20198;-75
2022/08/01 18:26:05;;;;;;;1.27;1.10;;;;;;;;;;5079241;28;20704;-77
2022/08/01 18:28:37;;;;;;;2.57;1.37;;;;;;;;;;5072760;28;20193;-76
2022/08/01 18:31:13;;;;;;;1.03;1.00;;;;;;;;;;5073984;28;20578;-77
2022/08/01 18:33:39;;;;;;;1.10;1.00;;;;;;;;;;5089723;28;20244;-77
2022/08/01 18:36:06;;;;;;;2.00;0.97;;;;;;;;;;5072281;28;20637;-77
2022/08/01 18:38:44;;;;;;;2.80;0.90;;;;;;;;;;5089782;28;20228;-77
2022/08/01 18:41:12;;;;;;;1.60;1.17;;;;;;;;;;5090187;28;20573;-76
2022/08/01 18:43:40;;;;;;;3.07;1.10;;;;;;;;;;5089989;28;20193;-76
2022/08/01 18:46:07;;;;;;;1.20;1.10;;;;;;;;;;5072006;28;20639;-77
2022/08/01 18:48:33;;;;;;;2.30;1.10;;;;;;;;;;5089961;28;20185;-76
2022/08/01 18:51:00;;;;;;;2.23;1.20;;;;;;;;;;5089902;28;20217;-76
2022/08/01 18:53:27;;;;;;;1.50;1.00;;;;;;;;;;5072139;28;20209;-76
2022/08/01 18:55:54;;;;;;;2.87;1.17;;;;;;;;;;5072423;28;20678;-76
2022/08/01 18:58:22;;;;;;;6.60;1.20;;;;;;;;;;5089781;28;20233;-76
2022/08/01 19:00:49;;;;;;;2.33;1.30;;;;;;;;;;5071984;28;20165;-76
2022/08/01 19:03:19;;;;;;;2.17;1.50;;;;;;;;;;5089952;28;20193;-76
2022/08/01 19:05:48;;;;;;;5.60;1.60;;;;;;;;;;5071921;28;20212;-77
2022/08/01 19:08:16;;;;;;;10.83;2.50;;;;;;;;;;5072138;28;20185;-77
2022/08/01 19:10:43;;;;;;;8.53;1.77;;;;;;;;;;5089767;28;20268;-77
2022/08/01 19:13:10;;;;;;;8.43;1.77;;;;;;;;;;5089342;28;20672;-77
2022/08/01 19:15:37;;;;;;;9.60;2.10;;;;;;;;;;5071215;28;20213;-77
2022/08/01 19:18:08;;;;;;;7.20;2.40;;;;;;;;;;5056937;28;20310;-76
2022/08/01 19:20:37;;;;;;;7.50;2.47;;;;;;;;;;5047884;28;20290;-77
2022/08/01 19:24:16;;;;;;;21.50;3.63;;;;;;;;;;5049347;28;20176;-77
2022/08/01 19:25:53;;;;;;;19.43;4.20;;;;;;;;;;5041344;28;20270;-76
2022/08/01 19:28:22;;;;;;;18.13;3.40;;;;;;;;;;5028529;28;20202;-77
2022/08/01 19:30:52;;;;;;;17.33;3.00;;;;;;;;;;5032718;28;20208;-76
2022/08/01 19:33:19;;;;;;;14.97;3.10;;;;;;;;;;5032542;28;20261;-77
2022/08/01 19:35:46;;;;;;;17.03;3.33;;;;;;;;;;5031536;28;20198;-77
2022/08/01 19:38:14;;;;;;;17.47;3.73;;;;;;;;;;5031921;28;20214;-76
2022/08/01 19:40:44;;;;;;;20.67;3.60;;;;;;;;;;5032658;28;20187;-76
2022/08/01 19:43:12;;;;;;;16.93;3.63;;;;;;;;;;5032635;28;20589;-76
2022/08/01 19:45:40;;;;;;;20.00;4.10;;;;;;;;;;5031343;28;20659;-76
2022/08/01 19:48:09;;;;;;;16.70;5.50;;;;;;;;;;5032456;28;20187;-77
2022/08/01 19:50:35;;;;;;;28.10;7.27;;;;;;;;;;5032246;28;20188;-77
2022/08/01 19:53:02;;;;;;;22.63;8.83;;;;;;;;;;5031115;28;20203;-76
2022/08/01 19:55:30;;;;;;;16.03;7.37;;;;;;;;;;5014900;28;20196;-77
2022/08/01 19:57:57;;;;;;;16.73;5.37;;;;;;;;;;5030838;28;20191;-76
2022/08/01 20:00:44;;;;;;;30.50;5.77;;;;;;;;;;5032230;28;20206;-77
2022/08/01 20:03:31;;;;;;;22.53;5.23;;;;;;;;;;5030964;28;20711;-76
2022/08/01 20:05:59;;;;;;;27.37;7.67;;;;;;;;;;5030852;28;20188;-76
2022/08/01 20:08:26;;;;;;;53.60;16.80;;;;;;;;;;5032699;28;20210;-77
2022/08/01 20:10:53;;;;;;;34.10;12.67;;;;;;;;;;5031087;28;20180;-77
2022/08/01 20:13:21;;;;;;;26.93;9.03;;;;;;;;;;5030863;28;20720;-76
2022/08/01 20:15:48;;;;;;;40.37;11.70;;;;;;;;;;5030546;28;20191;-77
2022/08/01 20:18:14;;;;;;;48.90;13.23;;;;;;;;;;5030348;28;20281;-76
2022/08/01 20:20:44;;;;;;;315.90;75.50;;;;;;;;;;5031804;28;20207;-77
2022/08/01 20:23:11;;;;;;;245.10;56.90;;;;;;;;;;5031960;28;20184;-76
2022/08/01 20:25:45;;;;;;;255.77;65.17;;;;;;;;;;5037167;28;20187;-77
2022/08/01 20:28:12;;;;;;;134.20;34.10;;;;;;;;;;5050391;28;20194;-76
2022/08/01 20:30:40;;;;;;;96.20;28.67;;;;;;;;;;5051201;28;20210;-76
2022/08/01 20:33:07;;;;;;;52.40;15.13;;;;;;;;;;5050166;28;20241;-77
2022/08/01 20:35:39;;;;;;;96.87;26.60;;;;;;;;;;5051379;28;20195;-77
2022/08/01 20:38:22;;;;;;;127.53;34.27;;;;;;;;;;5051162;28;20211;-76
2022/08/01 20:40:51;;;;;;;91.93;24.97;;;;;;;;;;5050483;28;20248;-76
2022/08/01 20:43:19;;;;;;;104.97;28.57;;;;;;;;;;5033684;28;20218;-76
2022/08/01 20:45:46;;;;;;;123.20;35.53;;;;;;;;;;5051386;28;20194;-77
2022/08/01 20:48:14;;;;;;;122.17;33.77;;;;;;;;;;5050181;28;20333;-76
2022/08/01 20:53:29;;;;;;;85.50;24.87;;;;;;;;;;5050053;28;20245;-76
2022/08/01 20:56:03;;;;;;;56.33;17.50;;;;;;;;;;5033438;28;20183;-76
2022/08/01 20:58:51;;;;;;;54.00;16.80;;;;;;;;;;5050055;28;20190;-76
2022/08/01 21:01:28;;;;;;;44.70;13.90;;;;;;;;;;5049971;28;20667;-76
2022/08/01 21:04:07;;;;;;;51.20;16.33;;;;;;;;;;5050734;28;20228;-76
2022/08/01 21:06:39;;;;;;;57.70;15.73;;;;;;;;;;5050981;28;20606;-76
2022/08/01 21:09:05;;;;;;;44.23;15.47;;;;;;;;;;5050808;28;20182;-76
2022/08/01 21:11:37;;;;;;;20.27;11.40;;;;;;;;;;5032890;28;20225;-77
2022/08/01 21:14:07;;;;;;;30.00;11.57;;;;;;;;;;5049689;28;20203;-76
2022/08/01 21:16:33;;;;;;;27.37;10.67;;;;;;;;;;5049462;28;20203;-76
2022/08/01 21:19:01;;;;;;;27.83;11.20;;;;;;;;;;5087127;28;20217;-77
2022/08/01 21:21:58;;;;;;;29.90;10.47;;;;;;;;;;5075748;28;20213;-76
2022/08/01 21:24:25;;;;;;;27.03;9.13;;;;;;;;;;5072982;28;20193;-76
2022/08/01 21:26:53;;;;;;;19.90;9.53;;;;;;;;;;5056589;28;20189;-76
2022/08/01 21:29:21;;;;;;;18.83;8.93;;;;;;;;;;5053193;28;20220;-77
2022/08/01 21:32:10;;;;;;;27.07;10.37;;;;;;;;;;5052670;28;20182;-76
2022/08/01 21:34:37;;;;;;;23.53;11.03;;;;;;;;;;5070132;28;20214;-77
2022/08/01 21:37:07;;;;;;;26.63;10.30;;;;;;;;;;5052832;28;20198;-77
2022/08/01 21:39:37;;;;;;;16.97;6.50;;;;;;;;;;5052584;28;20190;-76
2022/08/01 21:42:05;;;;;;;14.83;6.37;;;;;;;;;;5052592;28;20189;-76
2022/08/01 21:44:37;;;;;;;13.83;6.90;;;;;;;;;;5070424;28;20221;-76
2022/08/01 21:47:05;;;;;;;13.47;7.40;;;;;;;;;;5069958;28;20202;-77
2022/08/01 21:49:38;;;;;;;15.53;7.77;;;;;;;;;;5052899;28;20194;-77
2022/08/01 21:52:07;;;;;;;16.87;8.20;;;;;;;;;;5069158;28;20193;-77
2022/08/01 21:54:47;;;;;;;18.83;7.80;;;;;;;;;;5052373;28;20218;-77
2022/08/01 21:57:16;;;;;;;15.20;7.57;;;;;;;;;;5069820;28;20666;-76
2022/08/01 21:59:47;;;;;;;14.47;7.70;;;;;;;;;;5035705;28;20626;-76
2022/08/01 22:02:16;;;;;;;20.03;8.97;;;;;;;;;;5051889;28;20186;-76
2022/08/01 22:04:57;;;;;;;16.47;9.27;;;;;;;;;;5070023;28;20194;-76
2022/08/01 22:07:24;;;;;;;24.87;12.60;;;;;;;;;;5052235;28;20202;-76
2022/08/01 22:09:51;;;;;;;21.57;10.60;;;;;;;;;;5052114;28;20252;-76
2022/08/01 22:12:18;;;;;;;17.23;8.73;;;;;;;;;;5051785;28;20212;-76
2022/08/01 22:15:03;;;;;;;15.60;8.37;;;;;;;;;;5051534;28;20206;-77
2022/08/01 22:17:30;;;;;;;16.00;8.33;;;;;;;;;;5069662;28;20225;-76
2022/08/01 22:19:57;;;;;;;12.50;8.30;;;;;;;;;;5051837;28;20186;-77
2022/08/01 22:22:26;;;;;;;14.53;8.20;;;;;;;;;;5051927;28;20219;-77
2022/08/01 22:25:13;;;;;;;15.30;9.10;;;;;;;;;;5040170;28;20228;-77
2022/08/01 22:27:41;;;;;;;14.70;7.90;;;;;;;;;;5089849;28;20181;-77